sensor_id;sensor_type;location;lat;lon;timestamp;pressure;altitude;pressure_sealevel;temperature;humidity
3598;BME280;1813;52.016;8.714;2022-11-06T00:01:52;-16261.94;;;-139.71;65.59
3598;BME280;1813;52.016;8.714;2022-11-06T00:04:28;-16261.94;;;-139.71;65.65
3598;BME280;1813;52.016;8.714;2022-11-06T00:07:02;-16261.94;;;-139.71;65.59
3598;BME280;1813;52.016;8.714;2022-11-06T00:09:33;-16261.94;;;-139.71;65.55
3598;BME280;1813;52.016;8.714;2022-11-06T00:12:07;-16261.94;;;-139.71;65.58
3598;BME280;1813;52.016;8.714;2022-11-06T00:14:44;-16261.94;;;-139.71;65.67
3598;BME280;1813;52.016;8.714;2022-11-06T00:17:18;-16261.94;;;-139.71;65.54
3598;BME280;1813;52.016;8.714;2022-11-06T00:19:52;-16261.94;;;-139.71;65.42
3598;BME280;1813;52.016;8.714;2022-11-06T00:22:25;-16261.94;;;-139.71;65.40
3598;BME280;1813;52.016;8.714;2022-11-06T00:25:00;-16261.94;;;-139.71;65.23
3598;BME280;1813;52.016;8.714;2022-11-06T00:27:35;-16261.94;;;-139.71;65.26
3598;BME280;1813;52.016;8.714;2022-11-06T00:30:12;-16261.94;;;-139.71;65.32
3598;BME280;1813;52.016;8.714;2022-11-06T00:32:46;-16261.94;;;-139.71;65.26
3598;BME280;1813;52.016;8.714;2022-11-06T00:35:20;-16261.94;;;-139.71;65.35
3598;BME280;1813;52.016;8.714;2022-11-06T00:37:54;-16261.94;;;-139.71;65.35
3598;BME280;1813;52.016;8.714;2022-11-06T00:40:28;-16261.94;;;-139.71;65.48
3598;BME280;1813;52.016;8.714;2022-11-06T00:43:02;-16261.94;;;-139.71;65.45
3598;BME280;1813;52.016;8.714;2022-11-06T00:45:39;-16261.94;;;-139.71;65.65
3598;BME280;1813;52.016;8.714;2022-11-06T00:48:13;-16261.94;;;-139.71;65.94
3598;BME280;1813;52.016;8.714;2022-11-06T00:50:47;-16261.94;;;-139.71;65.86
3598;BME280;1813;52.016;8.714;2022-11-06T00:53:21;-16261.94;;;-139.71;66.10
3598;BME280;1813;52.016;8.714;2022-11-06T00:56:02;-16261.94;;;-139.71;66.14
3598;BME280;1813;52.016;8.714;2022-11-06T00:58:37;-16261.94;;;-139.71;66.15
3598;BME280;1813;52.016;8.714;2022-11-06T01:01:16;-16261.94;;;-139.71;66.40
3598;BME280;1813;52.016;8.714;2022-11-06T01:03:52;-16261.94;;;-139.71;66.67
3598;BME280;1813;52.016;8.714;2022-11-06T01:06:28;-16261.94;;;-139.71;66.78
3598;BME280;1813;52.016;8.714;2022-11-06T01:09:03;-16261.94;;;-139.71;66.59
3598;BME280;1813;52.016;8.714;2022-11-06T01:11:39;-16261.94;;;-139.71;66.67
3598;BME280;1813;52.016;8.714;2022-11-06T01:14:15;-16261.94;;;-139.71;66.72
3598;BME280;1813;52.016;8.714;2022-11-06T01:16:52;-16261.94;;;-139.71;66.62
3598;BME280;1813;52.016;8.714;2022-11-06T01:19:26;-16261.94;;;-139.71;66.59
3598;BME280;1813;52.016;8.714;2022-11-06T01:22:00;-16261.94;;;-139.71;66.50
3598;BME280;1813;52.016;8.714;2022-11-06T01:24:34;-16261.94;;;-139.71;66.57
3598;BME280;1813;52.016;8.714;2022-11-06T01:27:08;-16261.94;;;-139.71;66.46
3598;BME280;1813;52.016;8.714;2022-11-06T01:29:43;-16261.94;;;-139.71;66.55
3598;BME280;1813;52.016;8.714;2022-11-06T01:32:19;-16261.94;;;-139.71;66.67
3598;BME280;1813;52.016;8.714;2022-11-06T01:34:53;-16261.94;;;-139.71;66.65
3598;BME280;1813;52.016;8.714;2022-11-06T01:37:27;-16261.94;;;-139.71;66.62
3598;BME280;1813;52.016;8.714;2022-11-06T01:40:01;-16261.94;;;-139.71;66.77
3598;BME280;1813;52.016;8.714;2022-11-06T01:42:35;-16261.94;;;-139.71;66.58
3598;BME280;1813;52.016;8.714;2022-11-06T01:45:25;-16261.94;;;-139.71;66.70
3598;BME280;1813;52.016;8.714;2022-11-06T01:48:02;-16261.94;;;-139.71;66.70
3598;BME280;1813;52.016;8.714;2022-11-06T01:50:36;-16261.94;;;-139.71;66.84
3598;BME280;1813;52.016;8.714;2022-11-06T01:53:11;-16261.94;;;-139.71;67.09
3598;BME280;1813;52.016;8.714;2022-11-06T01:55:47;-16261.94;;;-139.71;67.17
3598;BME280;1813;52.016;8.714;2022-11-06T01:58:23;-16261.94;;;-139.71;67.06
3598;BME280;1813;52.016;8.714;2022-11-06T02:00:59;-16261.94;;;-139.71;67.17
3598;BME280;1813;52.016;8.714;2022-11-06T02:03:36;-16261.94;;;-139.71;67.06
3598;BME280;1813;52.016;8.714;2022-11-06T02:06:11;-16261.94;;;-139.71;67.23
3598;BME280;1813;52.016;8.714;2022-11-06T02:08:46;-16261.94;;;-139.71;67.18
3598;BME280;1813;52.016;8.714;2022-11-06T02:11:20;-16261.94;;;-139.71;67.22
3598;BME280;1813;52.016;8.714;2022-11-06T02:14:01;-16261.94;;;-139.71;67.31
3598;BME280;1813;52.016;8.714;2022-11-06T02:16:47;-16261.94;;;-139.71;67.50
3598;BME280;1813;52.016;8.714;2022-11-06T02:19:42;-16261.94;;;-139.71;67.40
3598;BME280;1813;52.016;8.714;2022-11-06T02:22:30;-16261.94;;;-139.71;67.10
3598;BME280;1813;52.016;8.714;2022-11-06T02:25:15;-16261.94;;;-139.71;67.26
3598;BME280;1813;52.016;8.714;2022-11-06T02:27:59;-16261.94;;;-139.71;67.23
3598;BME280;1813;52.016;8.714;2022-11-06T02:30:39;-16261.94;;;-139.71;67.26
3598;BME280;1813;52.016;8.714;2022-11-06T02:33:16;-16261.94;;;-139.71;67.26
3598;BME280;1813;52.016;8.714;2022-11-06T02:35:55;-16261.94;;;-139.71;67.38
3598;BME280;1813;52.016;8.714;2022-11-06T02:38:33;-16261.94;;;-139.71;67.49
3598;BME280;1813;52.016;8.714;2022-11-06T02:41:20;-16261.94;;;-139.71;67.52
3598;BME280;1813;52.016;8.714;2022-11-06T02:43:58;-16261.94;;;-139.71;67.65
3598;BME280;1813;52.016;8.714;2022-11-06T02:46:37;-16261.94;;;-139.71;67.60
3598;BME280;1813;52.016;8.714;2022-11-06T02:49:15;-16261.94;;;-139.71;67.55
3598;BME280;1813;52.016;8.714;2022-11-06T02:51:54;-16261.94;;;-139.71;67.50
3598;BME280;1813;52.016;8.714;2022-11-06T02:54:31;-16261.94;;;-139.71;67.54
3598;BME280;1813;52.016;8.714;2022-11-06T02:57:10;-16261.94;;;-139.71;67.59
3598;BME280;1813;52.016;8.714;2022-11-06T02:59:51;-16261.94;;;-139.71;67.56
3598;BME280;1813;52.016;8.714;2022-11-06T03:02:32;-16261.94;;;-139.71;67.53
3598;BME280;1813;52.016;8.714;2022-11-06T03:05:11;-16261.94;;;-139.71;67.45
3598;BME280;1813;52.016;8.714;2022-11-06T03:07:51;-16261.94;;;-139.71;67.39
3598;BME280;1813;52.016;8.714;2022-11-06T03:10:29;-16261.94;;;-139.71;67.31
3598;BME280;1813;52.016;8.714;2022-11-06T03:13:10;-16261.94;;;-139.71;67.26
3598;BME280;1813;52.016;8.714;2022-11-06T03:15:53;-16261.94;;;-139.71;67.33
3598;BME280;1813;52.016;8.714;2022-11-06T03:18:39;-16261.94;;;-139.71;67.34
3598;BME280;1813;52.016;8.714;2022-11-06T03:21:20;-16261.94;;;-139.71;67.46
3598;BME280;1813;52.016;8.714;2022-11-06T03:24:05;-16261.94;;;-139.71;67.53
3598;BME280;1813;52.016;8.714;2022-11-06T03:26:45;-16261.94;;;-139.71;67.34
3598;BME280;1813;52.016;8.714;2022-11-06T03:29:23;-16261.94;;;-139.71;67.16
3598;BME280;1813;52.016;8.714;2022-11-06T03:32:09;-16261.94;;;-139.71;67.07
3598;BME280;1813;52.016;8.714;2022-11-06T03:34:51;-16261.94;;;-139.71;67.04
3598;BME280;1813;52.016;8.714;2022-11-06T03:37:29;-16261.94;;;-139.71;67.05
3598;BME280;1813;52.016;8.714;2022-11-06T03:40:08;-16261.94;;;-139.71;67.08
3598;BME280;1813;52.016;8.714;2022-11-06T03:42:44;-16261.94;;;-139.71;67.02
3598;BME280;1813;52.016;8.714;2022-11-06T03:45:22;-16261.94;;;-139.71;67.08
3598;BME280;1813;52.016;8.714;2022-11-06T03:48:03;-16261.94;;;-139.71;67.08
3598;BME280;1813;52.016;8.714;2022-11-06T03:50:46;-16261.94;;;-139.71;67.32
3598;BME280;1813;52.016;8.714;2022-11-06T03:53:23;-16261.94;;;-139.71;67.30
3598;BME280;1813;52.016;8.714;2022-11-06T03:56:05;-16261.94;;;-139.71;67.33
3598;BME280;1813;52.016;8.714;2022-11-06T03:58:44;-16261.94;;;-139.71;67.24
3598;BME280;1813;52.016;8.714;2022-11-06T04:01:22;-16261.94;;;-139.71;67.17
3598;BME280;1813;52.016;8.714;2022-11-06T04:04:04;-16261.94;;;-139.71;67.16
3598;BME280;1813;52.016;8.714;2022-11-06T04:06:41;-16261.94;;;-139.71;67.40
3598;BME280;1813;52.016;8.714;2022-11-06T04:09:18;-16261.94;;;-139.71;67.31
3598;BME280;1813;52.016;8.714;2022-11-06T04:12:07;-16261.94;;;-139.71;67.53
3598;BME280;1813;52.016;8.714;2022-11-06T04:15:14;-16261.94;;;-139.71;67.44
3598;BME280;1813;52.016;8.714;2022-11-06T04:17:49;-16261.94;;;-139.71;67.59
3598;BME280;1813;52.016;8.714;2022-11-06T04:20:31;-16261.94;;;-139.71;67.55
3598;BME280;1813;52.016;8.714;2022-11-06T04:23:26;-16261.94;;;-139.71;67.73
3598;BME280;1813;52.016;8.714;2022-11-06T04:26:05;-16261.94;;;-139.71;67.81
3598;BME280;1813;52.016;8.714;2022-11-06T04:29:02;-16261.94;;;-139.71;67.63
3598;BME280;1813;52.016;8.714;2022-11-06T04:31:45;-16261.94;;;-139.71;67.40
3598;BME280;1813;52.016;8.714;2022-11-06T04:34:28;-16261.94;;;-139.71;67.45
3598;BME280;1813;52.016;8.714;2022-11-06T04:37:10;-16261.94;;;-139.71;67.18
3598;BME280;1813;52.016;8.714;2022-11-06T04:39:51;-16261.94;;;-139.71;67.31
3598;BME280;1813;52.016;8.714;2022-11-06T04:42:34;-16261.94;;;-139.71;67.24
3598;BME280;1813;52.016;8.714;2022-11-06T04:45:14;-16261.94;;;-139.71;67.25
3598;BME280;1813;52.016;8.714;2022-11-06T04:47:51;-16261.94;;;-139.71;67.28
3598;BME280;1813;52.016;8.714;2022-11-06T04:50:26;-16261.94;;;-139.71;67.38
3598;BME280;1813;52.016;8.714;2022-11-06T04:53:05;-16261.94;;;-139.71;67.20
3598;BME280;1813;52.016;8.714;2022-11-06T04:55:44;-16261.94;;;-139.71;67.11
3598;BME280;1813;52.016;8.714;2022-11-06T04:58:19;-16261.94;;;-139.71;67.05
3598;BME280;1813;52.016;8.714;2022-11-06T05:00:53;-16261.94;;;-139.71;66.95
3598;BME280;1813;52.016;8.714;2022-11-06T05:03:27;-16261.94;;;-139.71;67.08
3598;BME280;1813;52.016;8.714;2022-11-06T05:06:01;-16261.94;;;-139.71;67.13
3598;BME280;1813;52.016;8.714;2022-11-06T05:08:38;-16261.94;;;-139.71;67.01
3598;BME280;1813;52.016;8.714;2022-11-06T05:11:12;-16261.94;;;-139.71;66.89
3598;BME280;1813;52.016;8.714;2022-11-06T05:13:46;-16261.94;;;-139.71;66.92
3598;BME280;1813;52.016;8.714;2022-11-06T05:16:20;-16261.94;;;-139.71;67.04
3598;BME280;1813;52.016;8.714;2022-11-06T05:18:54;-16261.94;;;-139.71;67.16
3598;BME280;1813;52.016;8.714;2022-11-06T05:21:28;-16261.94;;;-139.71;67.20
3598;BME280;1813;52.016;8.714;2022-11-06T05:24:17;-16261.94;;;-139.71;67.03
3598;BME280;1813;52.016;8.714;2022-11-06T05:26:51;-16261.94;;;-139.71;67.05
3598;BME280;1813;52.016;8.714;2022-11-06T05:29:25;-16261.94;;;-139.71;67.13
3598;BME280;1813;52.016;8.714;2022-11-06T05:31:59;-16261.94;;;-139.71;67.04
3598;BME280;1813;52.016;8.714;2022-11-06T05:34:33;-16261.94;;;-139.71;67.27
3598;BME280;1813;52.016;8.714;2022-11-06T05:37:07;-16261.94;;;-139.71;67.33
3598;BME280;1813;52.016;8.714;2022-11-06T05:39:44;-16261.94;;;-139.71;67.27
3598;BME280;1813;52.016;8.714;2022-11-06T05:42:18;-16261.94;;;-139.71;67.31
3598;BME280;1813;52.016;8.714;2022-11-06T05:44:52;-16261.94;;;-139.71;67.36
3598;BME280;1813;52.016;8.714;2022-11-06T05:47:26;-16261.94;;;-139.71;67.21
3598;BME280;1813;52.016;8.714;2022-11-06T05:50:00;-16261.94;;;-139.71;67.21
3598;BME280;1813;52.016;8.714;2022-11-06T05:52:34;-16261.94;;;-139.71;67.40
3598;BME280;1813;52.016;8.714;2022-11-06T05:55:11;-16261.94;;;-139.71;67.51
3598;BME280;1813;52.016;8.714;2022-11-06T05:57:45;-16261.94;;;-139.71;67.46
3598;BME280;1813;52.016;8.714;2022-11-06T06:00:19;-16261.94;;;-139.71;67.41
3598;BME280;1813;52.016;8.714;2022-11-06T06:02:54;-16261.94;;;-139.71;67.51
3598;BME280;1813;52.016;8.714;2022-11-06T06:05:27;-16261.94;;;-139.71;67.40
3598;BME280;1813;52.016;8.714;2022-11-06T06:08:01;-16261.94;;;-139.71;67.45
3598;BME280;1813;52.016;8.714;2022-11-06T06:10:39;-16261.94;;;-139.71;67.58
3598;BME280;1813;52.016;8.714;2022-11-06T06:13:14;-16261.94;;;-139.71;67.43
3598;BME280;1813;52.016;8.714;2022-11-06T06:15:48;-16261.94;;;-139.71;67.50
3598;BME280;1813;52.016;8.714;2022-11-06T06:18:22;-16261.94;;;-139.71;67.37
3598;BME280;1813;52.016;8.714;2022-11-06T06:20:56;-16261.94;;;-139.71;67.26
3598;BME280;1813;52.016;8.714;2022-11-06T06:23:31;-16261.94;;;-139.71;67.26
3598;BME280;1813;52.016;8.714;2022-11-06T06:26:07;-16261.94;;;-139.71;67.21
3598;BME280;1813;52.016;8.714;2022-11-06T06:28:41;-16261.94;;;-139.71;67.43
3598;BME280;1813;52.016;8.714;2022-11-06T06:31:15;-16261.94;;;-139.71;67.47
3598;BME280;1813;52.016;8.714;2022-11-06T06:33:49;-16261.94;;;-139.71;67.62
3598;BME280;1813;52.016;8.714;2022-11-06T06:36:23;-16261.94;;;-139.71;67.54
3598;BME280;1813;52.016;8.714;2022-11-06T06:38:57;-16261.94;;;-139.71;67.78
3598;BME280;1813;52.016;8.714;2022-11-06T06:41:34;-16261.94;;;-139.71;67.91
3598;BME280;1813;52.016;8.714;2022-11-06T06:44:08;-16261.94;;;-139.71;67.89
3598;BME280;1813;52.016;8.714;2022-11-06T06:46:42;-16261.94;;;-139.71;67.90
3598;BME280;1813;52.016;8.714;2022-11-06T06:49:16;-16261.94;;;-139.71;68.05
3598;BME280;1813;52.016;8.714;2022-11-06T06:51:50;-16261.94;;;-139.71;67.88
3598;BME280;1813;52.016;8.714;2022-11-06T06:54:25;-16261.94;;;-139.71;68.12
3598;BME280;1813;52.016;8.714;2022-11-06T06:57:01;-16261.94;;;-139.71;68.29
3598;BME280;1813;52.016;8.714;2022-11-06T06:59:35;-16261.94;;;-139.71;68.27
3598;BME280;1813;52.016;8.714;2022-11-06T07:02:09;-16261.94;;;-139.71;68.14
3598;BME280;1813;52.016;8.714;2022-11-06T07:04:43;-16261.94;;;-139.71;68.18
3598;BME280;1813;52.016;8.714;2022-11-06T07:07:17;-16261.94;;;-139.71;68.04
3598;BME280;1813;52.016;8.714;2022-11-06T07:09:51;-16261.94;;;-139.71;67.94
3598;BME280;1813;52.016;8.714;2022-11-06T07:12:28;-16261.94;;;-139.71;67.72
3598;BME280;1813;52.016;8.714;2022-11-06T07:15:03;-16261.94;;;-139.71;67.70
3598;BME280;1813;52.016;8.714;2022-11-06T07:17:37;-16261.94;;;-139.71;67.63
3598;BME280;1813;52.016;8.714;2022-11-06T07:20:11;-16261.94;;;-139.71;67.60
3598;BME280;1813;52.016;8.714;2022-11-06T07:22:45;-16261.94;;;-139.71;67.49
3598;BME280;1813;52.016;8.714;2022-11-06T07:25:19;-16261.94;;;-139.71;67.45
3598;BME280;1813;52.016;8.714;2022-11-06T07:27:59;-16261.94;;;-139.71;67.26
3598;BME280;1813;52.016;8.714;2022-11-06T07:30:33;-16261.94;;;-139.71;66.99
3598;BME280;1813;52.016;8.714;2022-11-06T07:33:08;-16261.94;;;-139.71;66.82
3598;BME280;1813;52.016;8.714;2022-11-06T07:35:42;-16261.94;;;-139.71;66.48
3598;BME280;1813;52.016;8.714;2022-11-06T07:38:16;-16261.94;;;-139.71;66.25
3598;BME280;1813;52.016;8.714;2022-11-06T07:40:50;-16261.94;;;-139.71;66.22
3598;BME280;1813;52.016;8.714;2022-11-06T07:43:26;-16261.94;;;-139.71;65.95
3598;BME280;1813;52.016;8.714;2022-11-06T07:46:01;-16261.94;;;-139.71;66.06
3598;BME280;1813;52.016;8.714;2022-11-06T07:48:36;-16261.94;;;-139.71;66.01
3598;BME280;1813;52.016;8.714;2022-11-06T07:51:11;-16261.94;;;-139.71;65.20
3598;BME280;1813;52.016;8.714;2022-11-06T07:53:45;-16261.94;;;-139.71;64.55
3598;BME280;1813;52.016;8.714;2022-11-06T07:56:19;-16261.94;;;-139.71;63.38
3598;BME280;1813;52.016;8.714;2022-11-06T07:58:56;-16261.94;;;-139.71;62.50
3598;BME280;1813;52.016;8.714;2022-11-06T08:01:30;-16261.94;;;-139.71;61.91
3598;BME280;1813;52.016;8.714;2022-11-06T08:04:04;-16261.94;;;-139.71;61.67
3598;BME280;1813;52.016;8.714;2022-11-06T08:06:38;-16261.94;;;-139.71;61.20
3598;BME280;1813;52.016;8.714;2022-11-06T08:09:12;-16261.94;;;-139.71;60.79
3598;BME280;1813;52.016;8.714;2022-11-06T08:11:49;-16261.94;;;-139.71;59.97
3598;BME280;1813;52.016;8.714;2022-11-06T08:14:26;-16261.94;;;-139.71;58.70
3598;BME280;1813;52.016;8.714;2022-11-06T08:17:00;-16261.94;;;-139.71;58.39
3598;BME280;1813;52.016;8.714;2022-11-06T08:19:34;-16261.94;;;-139.71;58.18
3598;BME280;1813;52.016;8.714;2022-11-06T08:22:08;-16261.94;;;-139.71;59.31
3598;BME280;1813;52.016;8.714;2022-11-06T08:24:42;-16261.94;;;-139.71;59.22
3598;BME280;1813;52.016;8.714;2022-11-06T08:27:16;-16261.94;;;-139.71;59.09
3598;BME280;1813;52.016;8.714;2022-11-06T08:29:53;-16261.94;;;-139.71;58.45
3598;BME280;1813;52.016;8.714;2022-11-06T08:32:27;-16261.94;;;-139.71;57.87
3598;BME280;1813;52.016;8.714;2022-11-06T08:35:01;-16261.94;;;-139.71;57.29
3598;BME280;1813;52.016;8.714;2022-11-06T08:37:35;-16261.94;;;-139.71;57.39
3598;BME280;1813;52.016;8.714;2022-11-06T08:40:10;-16261.94;;;-139.71;56.71
3598;BME280;1813;52.016;8.714;2022-11-06T08:42:44;-16261.94;;;-139.71;57.32
3598;BME280;1813;52.016;8.714;2022-11-06T08:45:20;-16261.94;;;-139.71;57.71
3598;BME280;1813;52.016;8.714;2022-11-06T08:47:59;-16261.94;;;-139.71;58.45
3598;BME280;1813;52.016;8.714;2022-11-06T08:50:34;-16261.94;;;-139.71;59.26
3598;BME280;1813;52.016;8.714;2022-11-06T08:53:08;-16261.94;;;-139.71;59.53
3598;BME280;1813;52.016;8.714;2022-11-06T08:55:42;-16261.94;;;-139.71;59.59
3598;BME280;1813;52.016;8.714;2022-11-06T08:58:16;-16261.94;;;-139.71;59.66
3598;BME280;1813;52.016;8.714;2022-11-06T09:00:53;-16261.94;;;-139.71;59.13
3598;BME280;1813;52.016;8.714;2022-11-06T09:03:27;-16261.94;;;-139.71;57.70
3598;BME280;1813;52.016;8.714;2022-11-06T09:06:01;-16261.94;;;-139.71;58.39
3598;BME280;1813;52.016;8.714;2022-11-06T09:08:35;-16261.94;;;-139.71;58.48
3598;BME280;1813;52.016;8.714;2022-11-06T09:11:09;-16261.94;;;-139.71;58.44
3598;BME280;1813;52.016;8.714;2022-11-06T09:13:43;-16261.94;;;-139.71;58.18
3598;BME280;1813;52.016;8.714;2022-11-06T09:16:19;-16261.94;;;-139.71;58.46
3598;BME280;1813;52.016;8.714;2022-11-06T09:18:54;-16261.94;;;-139.71;58.25
3598;BME280;1813;52.016;8.714;2022-11-06T09:21:28;-16261.94;;;-139.71;57.03
3598;BME280;1813;52.016;8.714;2022-11-06T09:24:03;-16261.94;;;-139.71;56.41
3598;BME280;1813;52.016;8.714;2022-11-06T09:26:37;-16261.94;;;-139.71;56.32
3598;BME280;1813;52.016;8.714;2022-11-06T09:29:11;-16261.94;;;-139.71;55.90
3598;BME280;1813;52.016;8.714;2022-11-06T09:31:47;-16261.94;;;-139.71;55.21
3598;BME280;1813;52.016;8.714;2022-11-06T09:34:21;-16261.94;;;-139.71;53.91
3598;BME280;1813;52.016;8.714;2022-11-06T09:36:55;-16261.94;;;-139.71;53.35
3598;BME280;1813;52.016;8.714;2022-11-06T09:39:29;-16261.94;;;-139.71;53.10
3598;BME280;1813;52.016;8.714;2022-11-06T09:42:09;-16261.94;;;-139.71;52.37
3598;BME280;1813;52.016;8.714;2022-11-06T09:44:56;-16261.94;;;-139.71;51.43
3598;BME280;1813;52.016;8.714;2022-11-06T09:47:39;-16261.94;;;-139.71;51.51
3598;BME280;1813;52.016;8.714;2022-11-06T09:50:19;-16261.94;;;-139.71;50.73
3598;BME280;1813;52.016;8.714;2022-11-06T09:52:57;-16261.94;;;-139.71;50.59
3598;BME280;1813;52.016;8.714;2022-11-06T09:55:38;-16261.94;;;-139.71;50.63
3598;BME280;1813;52.016;8.714;2022-11-06T09:58:15;-16261.94;;;-139.71;49.94
3598;BME280;1813;52.016;8.714;2022-11-06T10:00:52;-16261.94;;;-139.71;49.60
3598;BME280;1813;52.016;8.714;2022-11-06T10:03:36;-16261.94;;;-139.71;49.05
3598;BME280;1813;52.016;8.714;2022-11-06T10:06:12;-16261.94;;;-139.71;49.38
3598;BME280;1813;52.016;8.714;2022-11-06T10:08:46;-16261.94;;;-139.71;48.70
3598;BME280;1813;52.016;8.714;2022-11-06T10:11:49;-16261.94;;;-139.71;49.03
3598;BME280;1813;52.016;8.714;2022-11-06T10:14:37;-16261.94;;;-139.71;48.66
3598;BME280;1813;52.016;8.714;2022-11-06T10:17:26;-16261.94;;;-139.71;48.25
3598;BME280;1813;52.016;8.714;2022-11-06T10:20:11;-16261.94;;;-139.71;48.30
3598;BME280;1813;52.016;8.714;2022-11-06T10:23:00;-16261.94;;;-139.71;48.34
3598;BME280;1813;52.016;8.714;2022-11-06T10:25:43;-16261.94;;;-139.71;48.32
3598;BME280;1813;52.016;8.714;2022-11-06T10:28:35;-16261.94;;;-139.71;48.10
3598;BME280;1813;52.016;8.714;2022-11-06T10:31:19;-16261.94;;;-139.71;47.46
3598;BME280;1813;52.016;8.714;2022-11-06T10:34:01;-16261.94;;;-139.71;47.10
3598;BME280;1813;52.016;8.714;2022-11-06T10:36:44;-16261.94;;;-139.71;47.34
3598;BME280;1813;52.016;8.714;2022-11-06T10:39:23;-16261.94;;;-139.71;47.24
3598;BME280;1813;52.016;8.714;2022-11-06T10:42:01;-16261.94;;;-139.71;46.72
3598;BME280;1813;52.016;8.714;2022-11-06T10:44:38;-16261.94;;;-139.71;47.42
3598;BME280;1813;52.016;8.714;2022-11-06T10:47:18;-16261.94;;;-139.71;46.82
3598;BME280;1813;52.016;8.714;2022-11-06T10:49:54;-16261.94;;;-139.71;45.84
3598;BME280;1813;52.016;8.714;2022-11-06T10:52:47;-16261.94;;;-139.71;45.97
3598;BME280;1813;52.016;8.714;2022-11-06T10:55:37;-16261.94;;;-139.71;46.99
3598;BME280;1813;52.016;8.714;2022-11-06T10:58:16;-16261.94;;;-139.71;47.66
3598;BME280;1813;52.016;8.714;2022-11-06T11:00:52;-16261.94;;;-139.71;48.08
3598;BME280;1813;52.016;8.714;2022-11-06T11:03:29;-16261.94;;;-139.71;47.85
3598;BME280;1813;52.016;8.714;2022-11-06T11:06:05;-16261.94;;;-139.71;46.92
3598;BME280;1813;52.016;8.714;2022-11-06T11:08:43;-16261.94;;;-139.71;47.61
3598;BME280;1813;52.016;8.714;2022-11-06T11:11:22;-16261.94;;;-139.71;48.05
3598;BME280;1813;52.016;8.714;2022-11-06T11:14:13;-16261.94;;;-139.71;48.04
3598;BME280;1813;52.016;8.714;2022-11-06T11:16:48;-16261.94;;;-139.71;47.83
3598;BME280;1813;52.016;8.714;2022-11-06T11:19:32;-16261.94;;;-139.71;47.73
3598;BME280;1813;52.016;8.714;2022-11-06T11:22:18;-16261.94;;;-139.71;48.09
3598;BME280;1813;52.016;8.714;2022-11-06T11:25:01;-16261.94;;;-139.71;48.67
3598;BME280;1813;52.016;8.714;2022-11-06T11:27:37;-16261.94;;;-139.71;48.25
3598;BME280;1813;52.016;8.714;2022-11-06T11:30:20;-16261.94;;;-139.71;48.98
3598;BME280;1813;52.016;8.714;2022-11-06T11:32:56;-16261.94;;;-139.71;49.28
3598;BME280;1813;52.016;8.714;2022-11-06T11:35:30;-16261.94;;;-139.71;49.82
3598;BME280;1813;52.016;8.714;2022-11-06T11:38:09;-16261.94;;;-139.71;50.71
3598;BME280;1813;52.016;8.714;2022-11-06T11:40:47;-16261.94;;;-139.71;49.78
3598;BME280;1813;52.016;8.714;2022-11-06T11:43:23;-16261.94;;;-139.71;50.18
3598;BME280;1813;52.016;8.714;2022-11-06T11:46:03;-16261.94;;;-139.71;49.55
3598;BME280;1813;52.016;8.714;2022-11-06T11:48:42;-16261.94;;;-139.71;49.70
3598;BME280;1813;52.016;8.714;2022-11-06T11:51:26;-16261.94;;;-139.71;49.50
3598;BME280;1813;52.016;8.714;2022-11-06T11:54:04;-16261.94;;;-139.71;49.55
3598;BME280;1813;52.016;8.714;2022-11-06T11:56:48;-16261.94;;;-139.71;49.81
3598;BME280;1813;52.016;8.714;2022-11-06T11:59:26;-16261.94;;;-139.71;50.00
3598;BME280;1813;52.016;8.714;2022-11-06T12:02:03;-16261.94;;;-139.71;50.64
3598;BME280;1813;52.016;8.714;2022-11-06T12:04:48;-16261.94;;;-139.71;50.95
3598;BME280;1813;52.016;8.714;2022-11-06T12:07:25;-16261.94;;;-139.71;50.88
3598;BME280;1813;52.016;8.714;2022-11-06T12:10:02;-16261.94;;;-139.71;51.87
3598;BME280;1813;52.016;8.714;2022-11-06T12:12:53;-16261.94;;;-139.71;51.38
3598;BME280;1813;52.016;8.714;2022-11-06T12:15:33;-16261.94;;;-139.71;51.48
3598;BME280;1813;52.016;8.714;2022-11-06T12:18:12;-16261.94;;;-139.71;49.70
3598;BME280;1813;52.016;8.714;2022-11-06T12:20:51;-16261.94;;;-139.71;49.48
3598;BME280;1813;52.016;8.714;2022-11-06T12:23:31;-16261.94;;;-139.71;47.92
3598;BME280;1813;52.016;8.714;2022-11-06T12:26:12;-16261.94;;;-139.71;47.87
3598;BME280;1813;52.016;8.714;2022-11-06T12:28:54;-16261.94;;;-139.71;47.70
3598;BME280;1813;52.016;8.714;2022-11-06T12:31:34;-16261.94;;;-139.71;47.23
3598;BME280;1813;52.016;8.714;2022-11-06T12:34:12;-16261.94;;;-139.71;47.83
3598;BME280;1813;52.016;8.714;2022-11-06T12:37:00;-16261.94;;;-139.71;47.90
3598;BME280;1813;52.016;8.714;2022-11-06T12:39:39;-16261.94;;;-139.71;48.04
3598;BME280;1813;52.016;8.714;2022-11-06T12:42:17;-16261.94;;;-139.71;48.61
3598;BME280;1813;52.016;8.714;2022-11-06T12:44:56;-16261.94;;;-139.71;49.23
3598;BME280;1813;52.016;8.714;2022-11-06T12:47:39;-16261.94;;;-139.71;49.07
3598;BME280;1813;52.016;8.714;2022-11-06T12:50:23;-16261.94;;;-139.71;48.23
3598;BME280;1813;52.016;8.714;2022-11-06T12:53:23;-16261.94;;;-139.71;48.05
3598;BME280;1813;52.016;8.714;2022-11-06T12:56:05;-16261.94;;;-139.71;46.91
3598;BME280;1813;52.016;8.714;2022-11-06T12:58:57;-16261.94;;;-139.71;47.00
3598;BME280;1813;52.016;8.714;2022-11-06T13:01:48;-16261.94;;;-139.71;47.53
3598;BME280;1813;52.016;8.714;2022-11-06T13:04:41;-16261.94;;;-139.71;47.90
3598;BME280;1813;52.016;8.714;2022-11-06T13:07:41;-16261.94;;;-139.71;48.21
3598;BME280;1813;52.016;8.714;2022-11-06T13:10:28;-16261.94;;;-139.71;48.73
3598;BME280;1813;52.016;8.714;2022-11-06T13:13:20;-16261.94;;;-139.71;49.50
3598;BME280;1813;52.016;8.714;2022-11-06T13:16:02;-16261.94;;;-139.71;49.70
3598;BME280;1813;52.016;8.714;2022-11-06T13:18:45;-16261.94;;;-139.71;49.82
3598;BME280;1813;52.016;8.714;2022-11-06T13:21:27;-16261.94;;;-139.71;50.04
3598;BME280;1813;52.016;8.714;2022-11-06T13:24:05;-16261.94;;;-139.71;49.84
3598;BME280;1813;52.016;8.714;2022-11-06T13:26:47;-16261.94;;;-139.71;50.27
3598;BME280;1813;52.016;8.714;2022-11-06T13:29:24;-16261.94;;;-139.71;50.47
3598;BME280;1813;52.016;8.714;2022-11-06T13:32:01;-16261.94;;;-139.71;50.23
3598;BME280;1813;52.016;8.714;2022-11-06T13:34:40;-16261.94;;;-139.71;51.23
3598;BME280;1813;52.016;8.714;2022-11-06T13:37:22;-16261.94;;;-139.71;51.57
3598;BME280;1813;52.016;8.714;2022-11-06T13:40:01;-16261.94;;;-139.71;51.34
3598;BME280;1813;52.016;8.714;2022-11-06T13:42:39;-16261.94;;;-139.71;51.23
3598;BME280;1813;52.016;8.714;2022-11-06T13:45:15;-16261.94;;;-139.71;51.45
3598;BME280;1813;52.016;8.714;2022-11-06T13:48:21;-16261.94;;;-139.71;50.86